createdAt,value
2022-09-21T00:02:57.242Z,100.00
2022-09-21T00:06:01.961Z,100.00
2022-09-21T00:09:04.470Z,100.00
2022-09-21T00:12:07.528Z,100.00
2022-09-21T00:15:10.263Z,100.00
2022-09-21T00:18:11.861Z,100.00
2022-09-21T00:21:14.979Z,100.00
2022-09-21T00:24:16.554Z,100.00
2022-09-21T00:27:19.549Z,100.00
2022-09-21T00:30:21.169Z,100.00
2022-09-21T00:33:22.769Z,100.00
2022-09-21T00:36:24.897Z,100.00
2022-09-21T00:39:26.522Z,100.00
2022-09-21T00:42:30.257Z,100.00
2022-09-21T00:45:31.993Z,100.00
2022-09-21T00:48:33.853Z,100.00
2022-09-21T00:51:35.535Z,100.00
2022-09-21T00:54:41.007Z,100.00
2022-09-21T00:57:45.268Z,100.00
2022-09-21T01:00:46.963Z,100.00
2022-09-21T01:03:49.113Z,100.00
2022-09-21T01:06:52.292Z,100.00
2022-09-21T01:09:55.159Z,100.00
2022-09-21T01:13:04.744Z,100.00
2022-09-21T01:16:10.972Z,100.00
2022-09-21T01:19:23.808Z,100.00
2022-09-21T01:22:32.635Z,100.00
2022-09-21T01:25:41.825Z,100.00
2022-09-21T01:29:01.035Z,100.00
2022-09-21T01:32:06.953Z,100.00
2022-09-21T01:35:10.841Z,100.00
2022-09-21T01:38:14.492Z,100.00
2022-09-21T01:41:18.402Z,100.00
2022-09-21T01:44:21.826Z,100.00
2022-09-21T01:47:25.165Z,100.00
2022-09-21T01:50:29.155Z,100.00
2022-09-21T01:53:33.379Z,100.00
2022-09-21T01:56:36.505Z,100.00
2022-09-21T01:59:41.250Z,100.00
2022-09-21T02:02:46.939Z,100.00
2022-09-21T02:05:48.606Z,100.00
2022-09-21T02:08:50.240Z,100.00
2022-09-21T02:11:51.801Z,100.00
2022-09-21T02:14:53.953Z,100.00
2022-09-21T02:18:03.449Z,100.00
2022-09-21T02:21:08.263Z,100.00
2022-09-21T02:24:13.705Z,100.00
2022-09-21T02:27:20.965Z,100.00
2022-09-21T02:30:23.721Z,100.00
2022-09-21T02:33:30.804Z,100.00
2022-09-21T02:36:37.242Z,100.00
2022-09-21T02:39:42.324Z,100.00
2022-09-21T02:42:44.431Z,100.00
2022-09-21T02:45:49.852Z,100.00
2022-09-21T02:48:54.122Z,100.00
2022-09-21T02:51:58.312Z,100.00
2022-09-21T02:55:01.356Z,100.00
2022-09-21T02:58:04.912Z,100.00
2022-09-21T03:01:08.154Z,100.00
2022-09-21T03:04:11.198Z,100.00
2022-09-21T03:07:13.035Z,100.00
2022-09-21T03:10:14.722Z,100.00
2022-09-21T03:13:16.633Z,100.00
2022-09-21T03:16:18.474Z,100.00
2022-09-21T03:19:21.476Z,100.00
2022-09-21T03:22:23.186Z,100.00
2022-09-21T03:25:24.847Z,100.00
2022-09-21T03:28:26.512Z,100.00
2022-09-21T03:31:28.178Z,100.00
2022-09-21T03:34:31.261Z,100.00
2022-09-21T03:37:32.864Z,100.00
2022-09-21T03:40:34.818Z,100.00
2022-09-21T03:43:36.418Z,100.00
2022-09-21T03:46:38.037Z,100.00
2022-09-21T03:49:41.029Z,100.00
2022-09-21T03:52:42.619Z,100.00
2022-09-21T03:55:44.225Z,100.00
2022-09-21T03:58:45.844Z,100.00
2022-09-21T04:01:47.543Z,100.00
2022-09-21T04:04:50.496Z,100.00
2022-09-21T04:07:54.091Z,100.00
2022-09-21T04:10:55.961Z,100.00
2022-09-21T04:13:57.540Z,100.00
2022-09-21T04:16:59.322Z,100.00
2022-09-21T04:20:02.677Z,100.00
2022-09-21T04:23:04.265Z,100.00
2022-09-21T04:26:05.875Z,100.00
2022-09-21T04:29:07.557Z,100.00
2022-09-21T04:32:10.093Z,100.00
2022-09-21T04:35:13.058Z,100.00
2022-09-21T04:38:14.657Z,100.00
2022-09-21T04:41:16.939Z,100.00
2022-09-21T04:44:18.540Z,100.00
2022-09-21T04:47:20.150Z,100.00
2022-09-21T04:50:23.114Z,100.00
2022-09-21T04:53:24.697Z,100.00
2022-09-21T04:56:26.295Z,100.00
2022-09-21T04:59:27.891Z,100.00
2022-09-21T05:02:29.516Z,100.00
2022-09-21T05:05:32.499Z,100.00
2022-09-21T05:08:34.220Z,100.00
2022-09-21T05:11:35.839Z,100.00
2022-09-21T05:14:37.426Z,100.00
2022-09-21T05:17:39.636Z,100.00
2022-09-21T05:20:42.752Z,100.00
2022-09-21T05:23:44.399Z,100.00
2022-09-21T05:26:46.011Z,100.00
2022-09-21T05:29:47.991Z,100.00
2022-09-21T05:32:55.050Z,100.00
2022-09-21T05:36:04.992Z,100.00
2022-09-21T05:39:06.884Z,100.00
2022-09-21T05:42:10.291Z,100.00
2022-09-21T05:45:15.652Z,100.00
2022-09-21T05:48:19.088Z,100.00
2022-09-21T05:51:27.200Z,100.00
2022-09-21T05:54:32.521Z,100.00
2022-09-21T05:57:41.128Z,100.00
2022-09-21T06:00:44.887Z,100.00
2022-09-21T06:03:46.888Z,100.00
2022-09-21T06:06:49.926Z,100.00
2022-09-21T06:09:51.861Z,100.00
2022-09-21T06:12:53.491Z,100.00
2022-09-21T06:15:55.142Z,100.00
2022-09-21T06:18:56.749Z,100.00
2022-09-21T06:21:59.693Z,100.00
2022-09-21T06:25:01.614Z,100.00
2022-09-21T06:28:03.831Z,100.00
2022-09-21T06:31:05.483Z,100.00
2022-09-21T06:34:07.264Z,100.00
2022-09-21T06:37:10.305Z,100.00
2022-09-21T06:40:11.937Z,100.00
2022-09-21T06:43:13.602Z,100.00
2022-09-21T06:46:15.301Z,100.00
2022-09-21T06:49:17.018Z,100.00
2022-09-21T06:52:19.988Z,100.00
2022-09-21T06:55:21.564Z,100.00
2022-09-21T06:58:23.186Z,100.00
2022-09-21T07:01:24.915Z,100.00
2022-09-21T07:04:26.630Z,100.00
2022-09-21T07:07:29.921Z,100.00
2022-09-21T07:10:31.571Z,100.00
2022-09-21T07:13:33.239Z,100.00
2022-09-21T07:16:34.921Z,100.00
2022-09-21T07:19:36.577Z,100.00
2022-09-21T07:22:39.605Z,100.00
2022-09-21T07:25:41.615Z,100.00
2022-09-21T07:28:43.254Z,100.00
2022-09-21T07:31:45.104Z,100.00
2022-09-21T07:34:46.785Z,100.00
2022-09-21T07:37:49.920Z,100.00
2022-09-21T07:40:51.504Z,100.00
2022-09-21T07:43:53.405Z,100.00
2022-09-21T07:46:55.077Z,100.00
2022-09-21T07:49:56.721Z,100.00
2022-09-21T07:53:00.248Z,100.00
2022-09-21T07:56:02.412Z,100.00
2022-09-21T07:59:04.380Z,100.00
2022-09-21T08:02:06.369Z,100.00
2022-09-21T08:05:08.355Z,100.00
2022-09-21T08:08:11.333Z,100.00
2022-09-21T08:11:12.922Z,100.00
2022-09-21T08:14:14.534Z,100.00
2022-09-21T08:17:16.131Z,100.00
2022-09-21T08:20:17.759Z,100.00
2022-09-21T08:23:20.808Z,100.00
2022-09-21T08:26:22.455Z,100.00
2022-09-21T08:29:24.247Z,100.00
2022-09-21T08:32:49.265Z,100.00
2022-09-21T08:35:52.287Z,100.00
2022-09-21T08:38:55.285Z,100.00
2022-09-21T08:42:04.762Z,100.00
2022-09-21T08:45:11.082Z,100.00
2022-09-21T08:48:18.696Z,100.00
2022-09-21T08:51:22.964Z,100.00
2022-09-21T08:54:28.717Z,100.00
2022-09-21T08:57:30.906Z,100.00
2022-09-21T09:00:35.740Z,100.00
2022-09-21T09:03:46.851Z,100.00
2022-09-21T09:06:52.737Z,100.00
2022-09-21T09:10:18.146Z,100.00
2022-09-21T09:13:28.120Z,100.00
2022-09-21T09:16:32.060Z,100.00
2022-09-21T09:19:39.690Z,100.00
2022-09-21T09:22:44.921Z,100.00
2022-09-21T09:25:50.330Z,100.00
2022-09-21T09:28:55.284Z,100.00
2022-09-21T09:31:58.117Z,100.00
2022-09-21T09:35:03.220Z,100.00
2022-09-21T09:38:09.769Z,100.00
2022-09-21T09:41:21.465Z,100.00
2022-09-21T09:44:28.284Z,100.00
2022-09-21T09:47:36.537Z,100.00
2022-09-21T09:50:39.797Z,100.00
2022-09-21T09:53:41.398Z,100.00
2022-09-21T09:56:44.651Z,100.00
2022-09-21T09:59:54.004Z,100.00
2022-09-21T10:02:56.791Z,100.00
2022-09-21T10:05:58.435Z,100.00
2022-09-21T10:09:00.117Z,100.00
2022-09-21T10:12:15.682Z,100.00
2022-09-21T10:15:17.660Z,100.00
2022-09-21T10:18:21.862Z,100.00
2022-09-21T10:21:24.664Z,100.00
2022-09-21T10:24:28.251Z,100.00
2022-09-21T10:27:34.084Z,100.00
2022-09-21T10:30:36.625Z,100.00
2022-09-21T10:33:47.949Z,100.00
2022-09-21T10:36:50.419Z,100.00
2022-09-21T10:39:52.068Z,100.00
2022-09-21T10:42:55.999Z,100.00
2022-09-21T10:45:57.968Z,100.00
2022-09-21T10:49:00.025Z,100.00
2022-09-21T10:52:02.003Z,100.00
2022-09-21T10:55:04.291Z,100.00
2022-09-21T10:58:10.172Z,100.00
2022-09-21T11:01:13.338Z,100.00
2022-09-21T11:04:18.133Z,100.00
2022-09-21T11:07:22.544Z,100.00
2022-09-21T11:10:27.407Z,100.00
2022-09-21T11:13:34.105Z,100.00
2022-09-21T11:16:38.764Z,100.00
2022-09-21T11:19:43.602Z,100.00
2022-09-21T11:22:49.077Z,100.00
2022-09-21T11:25:56.919Z,100.00
2022-09-21T11:29:03.317Z,100.00
2022-09-21T11:32:21.873Z,100.00
2022-09-21T11:35:39.512Z,100.00
2022-09-21T11:38:47.329Z,100.00
2022-09-21T11:41:55.892Z,100.00
2022-09-21T11:45:00.407Z,100.00
2022-09-21T11:48:11.000Z,100.00
2022-09-21T11:51:19.774Z,100.00
2022-09-21T11:54:42.477Z,100.00
2022-09-21T11:57:49.590Z,100.00
2022-09-21T12:01:00.771Z,100.00
2022-09-21T12:04:13.890Z,100.00
2022-09-21T12:07:22.269Z,99.94
2022-09-21T12:10:42.341Z,97.06
2022-09-21T12:13:48.431Z,96.40
2022-09-21T12:16:56.692Z,96.10
2022-09-21T12:20:03.394Z,94.11
2022-09-21T12:23:16.348Z,95.81
2022-09-21T12:26:19.971Z,98.45
2022-09-21T12:29:25.591Z,100.00
2022-09-21T12:32:36.939Z,100.00
2022-09-21T12:35:41.611Z,99.77
2022-09-21T12:38:49.142Z,97.97
2022-09-21T12:41:54.208Z,100.00
2022-09-21T12:44:58.559Z,98.83
2022-09-21T12:48:06.132Z,96.86
2022-09-21T12:51:12.684Z,98.42
2022-09-21T12:54:20.923Z,96.31
2022-09-21T12:57:49.208Z,92.00
2022-09-21T13:00:57.723Z,94.00
2022-09-21T13:04:09.529Z,93.17
2022-09-21T13:07:31.996Z,93.23
2022-09-21T13:10:45.205Z,92.71
2022-09-21T13:13:47.718Z,90.58
2022-09-21T13:16:54.536Z,93.30
2022-09-21T13:19:59.024Z,94.23
2022-09-21T13:23:01.385Z,91.91
2022-09-21T13:26:04.729Z,90.20
2022-09-21T13:29:25.928Z,89.65
2022-09-21T13:32:47.625Z,91.62
2022-09-21T13:36:00.854Z,89.78
2022-09-21T13:39:16.330Z,87.44
2022-09-21T13:42:32.942Z,87.96
2022-09-21T13:45:49.244Z,89.60
2022-09-21T13:48:53.663Z,92.72
2022-09-21T13:51:59.064Z,87.77
2022-09-21T13:55:01.939Z,89.38
2022-09-21T13:58:05.030Z,94.58
2022-09-21T14:01:29.232Z,96.75
2022-09-21T14:04:34.792Z,100.00
2022-09-21T14:07:38.003Z,100.00
2022-09-21T14:10:40.276Z,100.00
2022-09-21T14:13:42.923Z,100.00
2022-09-21T14:17:02.277Z,100.00
2022-09-21T14:20:05.576Z,100.00
2022-09-21T14:23:26.077Z,100.00
2022-09-21T14:26:32.594Z,100.00
2022-09-21T14:29:39.258Z,100.00
2022-09-21T14:32:43.465Z,100.00
2022-09-21T14:35:45.824Z,100.00
2022-09-21T14:38:53.741Z,99.94
2022-09-21T14:42:03.037Z,100.00
2022-09-21T14:45:05.037Z,99.57
2022-09-21T14:48:08.802Z,99.42
2022-09-21T14:51:14.423Z,100.00
2022-09-21T14:54:23.732Z,100.00
2022-09-21T14:57:35.551Z,100.00
2022-09-21T15:00:38.850Z,98.52
2022-09-21T15:03:51.151Z,99.34
2022-09-21T15:06:57.680Z,95.98
2022-09-21T15:10:11.064Z,89.08
2022-09-21T15:13:27.494Z,88.52
2022-09-21T15:16:38.684Z,89.44
2022-09-21T15:19:40.359Z,86.50
2022-09-21T15:22:43.045Z,82.62
2022-09-21T15:25:53.444Z,80.74
2022-09-21T15:29:10.857Z,81.67
2022-09-21T15:32:23.517Z,81.75
2022-09-21T15:35:26.105Z,77.71
2022-09-21T15:38:28.367Z,77.76
2022-09-21T15:41:44.801Z,77.44
2022-09-21T15:44:47.393Z,76.18
2022-09-21T15:47:49.160Z,74.92
2022-09-21T15:50:53.703Z,73.12
2022-09-21T15:53:57.009Z,71.68
2022-09-21T15:57:05.969Z,72.29
2022-09-21T16:00:19.924Z,71.59
2022-09-21T16:03:22.897Z,68.84
2022-09-21T16:06:25.600Z,67.65
2022-09-21T16:09:28.269Z,67.16
2022-09-21T16:12:41.415Z,66.64
2022-09-21T16:15:59.477Z,65.08
2022-09-21T16:19:01.176Z,68.12
2022-09-21T16:22:03.921Z,66.57
2022-09-21T16:25:20.366Z,67.74
2022-09-21T16:28:34.474Z,66.83
2022-09-21T16:31:36.306Z,65.37
2022-09-21T16:34:38.032Z,70.15
2022-09-21T16:37:39.671Z,78.68
2022-09-21T16:40:41.381Z,82.45
2022-09-21T16:43:44.503Z,86.85
2022-09-21T16:46:46.989Z,90.34
2022-09-21T16:49:48.690Z,91.42
2022-09-21T16:52:50.519Z,93.61
2022-09-21T16:55:52.111Z,95.88
2022-09-21T16:58:55.112Z,97.66
2022-09-21T17:01:57.678Z,98.85
2022-09-21T17:04:59.341Z,98.75
2022-09-21T17:08:01.167Z,100.00
2022-09-21T17:11:03.012Z,100.00
2022-09-21T17:14:06.059Z,100.00
2022-09-21T17:17:12.349Z,100.00
2022-09-21T17:20:18.400Z,100.00
2022-09-21T17:23:20.069Z,100.00
2022-09-21T17:26:21.898Z,100.00
2022-09-21T17:29:26.043Z,100.00
2022-09-21T17:32:27.673Z,100.00
2022-09-21T17:35:31.637Z,100.00
2022-09-21T17:38:33.309Z,100.00
2022-09-21T17:41:37.256Z,100.00
2022-09-21T17:44:45.520Z,100.00
2022-09-21T17:47:47.343Z,100.00
2022-09-21T17:50:49.617Z,100.00
2022-09-21T17:53:51.800Z,100.00
2022-09-21T17:56:56.390Z,100.00
2022-09-21T18:00:02.990Z,100.00
2022-09-21T18:03:10.790Z,100.00
2022-09-21T18:06:12.881Z,100.00
2022-09-21T18:09:14.861Z,100.00
2022-09-21T18:12:40.174Z,100.00
2022-09-21T18:15:50.016Z,100.00
2022-09-21T18:18:55.310Z,100.00
2022-09-21T18:21:59.046Z,100.00
2022-09-21T18:25:01.100Z,100.00
2022-09-21T18:28:05.230Z,100.00
2022-09-21T18:31:21.731Z,100.00
2022-09-21T18:34:35.447Z,100.00
2022-09-21T18:37:44.454Z,100.00
2022-09-21T18:40:54.899Z,100.00
2022-09-21T18:44:01.095Z,100.00
2022-09-21T18:47:06.532Z,100.00
2022-09-21T18:50:17.467Z,100.00
2022-09-21T18:53:23.589Z,100.00
2022-09-21T18:56:26.385Z,100.00
2022-09-21T18:59:31.678Z,100.00
2022-09-21T19:02:33.979Z,100.00
2022-09-21T19:05:38.717Z,100.00
2022-09-21T19:08:44.671Z,100.00
2022-09-21T19:11:49.045Z,100.00
2022-09-21T19:14:57.613Z,100.00
2022-09-21T19:18:07.397Z,100.00
2022-09-21T19:21:17.206Z,100.00
2022-09-21T19:24:23.557Z,100.00
2022-09-21T19:27:28.213Z,100.00
2022-09-21T19:30:30.137Z,100.00
2022-09-21T19:33:49.372Z,100.00
2022-09-21T19:36:52.917Z,100.00
2022-09-21T19:39:54.719Z,100.00
2022-09-21T19:43:14.212Z,100.00
2022-09-21T19:46:21.155Z,100.00
2022-09-21T19:49:24.336Z,100.00
2022-09-21T19:52:29.913Z,100.00
2022-09-21T19:55:31.977Z,100.00
2022-09-21T19:58:33.894Z,100.00
2022-09-21T20:01:39.003Z,100.00
2022-09-21T20:04:44.277Z,100.00
2022-09-21T20:07:48.896Z,100.00
2022-09-21T20:11:01.590Z,100.00
2022-09-21T20:14:09.318Z,100.00
2022-09-21T20:17:12.093Z,100.00
2022-09-21T20:20:15.927Z,100.00
2022-09-21T20:23:19.270Z,100.00
2022-09-21T20:26:23.464Z,100.00
2022-09-21T20:29:25.290Z,100.00
2022-09-21T20:32:27.002Z,100.00
2022-09-21T20:35:30.142Z,100.00
2022-09-21T20:38:33.196Z,100.00
2022-09-21T20:41:37.270Z,100.00
2022-09-21T20:44:38.907Z,100.00
2022-09-21T20:47:40.603Z,100.00
2022-09-21T20:50:42.731Z,100.00
2022-09-21T20:53:45.716Z,100.00
2022-09-21T20:56:47.439Z,100.00
2022-09-21T20:59:49.165Z,100.00
2022-09-21T21:02:50.774Z,100.00
2022-09-21T21:05:52.382Z,100.00
2022-09-21T21:08:55.385Z,100.00
2022-09-21T21:11:57.038Z,100.00
2022-09-21T21:14:58.676Z,100.00
2022-09-21T21:18:00.299Z,100.00
2022-09-21T21:21:01.964Z,100.00
2022-09-21T21:24:05.439Z,100.00
2022-09-21T21:27:07.283Z,100.00
2022-09-21T21:30:09.922Z,100.00
2022-09-21T21:33:11.539Z,100.00
2022-09-21T21:36:13.206Z,100.00
2022-09-21T21:39:16.207Z,100.00
2022-09-21T21:42:18.643Z,100.00
2022-09-21T21:45:20.319Z,100.00
2022-09-21T21:48:22.003Z,100.00
2022-09-21T21:51:23.642Z,100.00
2022-09-21T21:54:26.883Z,100.00
2022-09-21T21:57:28.605Z,100.00
2022-09-21T22:00:30.218Z,100.00
2022-09-21T22:03:31.842Z,100.00
2022-09-21T22:06:34.567Z,100.00
2022-09-21T22:09:37.595Z,100.00
2022-09-21T22:12:39.303Z,100.00
2022-09-21T22:15:40.945Z,100.00
2022-09-21T22:18:44.846Z,100.00
2022-09-21T22:21:50.384Z,100.00
2022-09-21T22:24:56.325Z,100.00
2022-09-21T22:27:57.978Z,100.00
2022-09-21T22:30:59.934Z,100.00
2022-09-21T22:34:01.571Z,100.00
2022-09-21T22:37:03.253Z,100.00
2022-09-21T22:40:07.289Z,100.00
2022-09-21T22:43:09.036Z,100.00
2022-09-21T22:46:10.961Z,100.00
2022-09-21T22:49:12.644Z,100.00
2022-09-21T22:52:14.259Z,100.00
2022-09-21T22:55:17.396Z,100.00
2022-09-21T22:58:19.083Z,100.00
2022-09-21T23:01:23.714Z,100.00
2022-09-21T23:04:25.467Z,100.00
2022-09-21T23:07:27.083Z,100.00
2022-09-21T23:10:30.080Z,100.00
2022-09-21T23:13:31.744Z,100.00
2022-09-21T23:16:33.534Z,100.00
2022-09-21T23:19:35.215Z,100.00
2022-09-21T23:22:37.147Z,100.00
2022-09-21T23:25:40.165Z,100.00
2022-09-21T23:28:42.317Z,100.00
2022-09-21T23:31:46.049Z,100.00
2022-09-21T23:34:48.074Z,100.00
2022-09-21T23:37:49.766Z,100.00
2022-09-21T23:40:52.904Z,100.00
2022-09-21T23:43:54.897Z,100.00
2022-09-21T23:46:56.643Z,100.00
2022-09-21T23:49:58.277Z,100.00
2022-09-21T23:52:59.901Z,100.00
2022-09-21T23:56:03.659Z,100.00
2022-09-21T23:59:05.520Z,100.00
